Time;durP1;ratioP1;P1;durP2;ratioP2;P2;SDS_P1;SDS_P2;PMS_P1;PMS_P2;Temp;Humidity;BMP_temperature;BMP_pressure;BME280_temperature;BME280_humidity;BME280_pressure;Samples;Min_cycle;Max_cycle;Signal;HPM_P1;HPM_P2
2023/02/23 00:01:40;;;;;;;1999.90;999.90;;;10.90;99.90;;;;;;5076453;28;20424;-67
2023/02/23 00:04:07;;;;;;;1999.90;999.90;;;10.90;99.90;;;;;;5072258;28;20411;-67
2023/02/23 00:06:34;;;;;;;1999.90;999.90;;;10.90;99.90;;;;;;5076747;28;20823;-67
2023/02/23 00:09:05;;;;;;;1999.90;999.90;;;10.90;99.90;;;;;;5073297;28;20421;-67
2023/02/23 00:11:32;;;;;;;1999.90;999.90;;;10.90;99.90;;;;;;5075339;28;20979;-68
2023/02/23 00:14:00;;;;;;;1999.90;999.90;;;10.80;99.90;;;;;;5074633;28;20948;-67
2023/02/23 00:16:25;;;;;;;1999.90;999.90;;;10.80;99.90;;;;;;5074908;28;20397;-68
2023/02/23 00:18:54;;;;;;;1999.90;999.90;;;10.80;99.90;;;;;;5074984;28;20423;-66
2023/02/23 00:21:24;;;;;;;1999.90;999.90;;;10.90;99.90;;;;;;5075564;28;20170;-67
2023/02/23 00:23:59;;;;;;;1999.90;999.90;;;10.90;99.90;;;;;;5076831;28;20408;-67
2023/02/23 00:26:30;;;;;;;1999.90;999.90;;;10.90;99.90;;;;;;5074518;28;20435;-67
2023/02/23 00:28:56;;;;;;;1999.90;999.90;;;10.90;99.90;;;;;;5075652;28;20410;-67
2023/02/23 00:31:24;;;;;;;1999.90;999.90;;;10.90;99.90;;;;;;5074300;28;20400;-68
2023/02/23 00:33:55;;;;;;;1999.90;999.90;;;10.90;99.90;;;;;;5074502;28;20482;-69
2023/02/23 00:36:24;;;;;;;1999.90;999.90;;;10.80;99.90;;;;;;5072543;28;20451;-67
2023/02/23 00:38:54;;;;;;;1999.90;999.90;;;10.90;99.90;;;;;;5086090;22;20483;-70
2023/02/23 00:41:29;;;;;;;1999.90;999.90;;;10.90;99.90;;;;;;5011493;28;20400;-70
2023/02/23 00:43:57;;;;;;;1999.90;999.90;;;10.90;99.90;;;;;;5014872;28;20418;-70
2023/02/23 00:46:28;;;;;;;1999.90;999.90;;;10.90;99.90;;;;;;5014892;28;20481;-70
2023/02/23 00:48:55;;;;;;;1999.90;999.90;;;10.90;99.90;;;;;;5015096;28;20421;-71
2023/02/23 00:51:22;;;;;;;1999.90;999.90;;;10.90;99.90;;;;;;5014851;28;20404;-70
2023/02/23 00:53:48;;;;;;;1999.90;999.90;;;10.90;99.90;;;;;;5015057;28;20396;-70
2023/02/23 00:56:15;;;;;;;1999.90;999.90;;;10.90;99.90;;;;;;5014887;28;20392;-70
2023/02/23 00:58:41;;;;;;;1999.90;999.90;;;10.90;99.90;;;;;;5014813;28;20284;-70
2023/02/23 01:01:08;;;;;;;1999.90;999.90;;;10.90;99.90;;;;;;5014632;28;20396;-70
2023/02/23 01:03:36;;;;;;;1999.90;999.90;;;10.90;99.90;;;;;;5014814;28;20404;-70
2023/02/23 01:06:05;;;;;;;1999.90;999.90;;;10.90;99.90;;;;;;5014625;28;20846;-69
2023/02/23 01:08:32;;;;;;;1999.90;999.90;;;10.90;99.90;;;;;;5014793;28;20424;-70
2023/02/23 01:10:58;;;;;;;1999.90;999.90;;;10.90;99.90;;;;;;5014523;28;20821;-70
2023/02/23 01:13:26;;;;;;;1999.90;999.90;;;10.90;99.90;;;;;;5014547;28;20404;-70
2023/02/23 01:15:52;;;;;;;1999.90;999.90;;;10.90;99.90;;;;;;5014548;28;20971;-70
2023/02/23 01:18:19;;;;;;;1999.90;999.90;;;10.90;99.90;;;;;;5014523;28;20482;-70
2023/02/23 01:20:45;;;;;;;1999.90;999.90;;;10.80;99.90;;;;;;5014408;28;20417;-70
2023/02/23 01:23:15;;;;;;;1999.90;999.90;;;10.80;99.90;;;;;;5014505;28;20404;-70
2023/02/23 01:25:42;;;;;;;1999.90;999.90;;;10.80;99.90;;;;;;5014317;28;20475;-70
2023/02/23 01:28:11;;;;;;;1999.90;999.90;;;10.80;99.90;;;;;;5014143;28;20428;-69
2023/02/23 01:30:38;;;;;;;1999.90;999.90;;;10.80;99.90;;;;;;5014234;28;20803;-70
2023/02/23 01:33:05;;;;;;;1999.90;999.90;;;10.80;99.90;;;;;;5014309;28;20407;-69
2023/02/23 01:35:32;;;;;;;1999.90;999.90;;;10.80;99.90;;;;;;5014234;28;20893;-70
2023/02/23 01:37:58;;;;;;;1999.90;999.90;;;10.70;99.90;;;;;;5013978;28;20776;-70
2023/02/23 01:40:28;;;;;;;1999.90;999.90;;;10.70;99.90;;;;;;5014219;28;20413;-70
2023/02/23 01:43:05;;;;;;;1999.90;999.90;;;10.70;99.90;;;;;;5013951;28;20403;-70
2023/02/23 01:45:37;;;;;;;1999.90;999.90;;;10.70;99.90;;;;;;5014022;28;20443;-70
2023/02/23 01:48:13;;;;;;;1999.90;999.90;;;10.80;99.90;;;;;;5013964;28;20798;-70
2023/02/23 01:51:05;;;;;;;1999.90;999.90;;;10.70;99.90;;;;;;5013851;28;20488;-69
2023/02/23 01:53:35;;;;;;;1999.90;999.90;;;10.70;99.90;;;;;;5013177;28;20433;-70
2023/02/23 01:56:11;;;;;;;1999.90;999.90;;;10.70;99.90;;;;;;5013561;28;20400;-69
2023/02/23 01:58:40;;;;;;;1999.90;999.90;;;10.70;99.90;;;;;;5013702;28;20416;-70
2023/02/23 02:01:06;;;;;;;1999.90;999.90;;;10.60;99.90;;;;;;5013620;28;20462;-70
2023/02/23 02:03:47;;;;;;;1999.90;999.90;;;10.50;99.90;;;;;;5013780;28;20419;-70
2023/02/23 02:06:17;;;;;;;1999.90;999.90;;;10.50;99.90;;;;;;5013625;28;20501;-71
2023/02/23 02:08:46;;;;;;;1999.90;999.90;;;10.50;99.90;;;;;;5013839;28;20473;-70
2023/02/23 02:14:12;;;;;;;1999.90;999.90;;;10.40;99.90;;;;;;4990773;28;20414;-70
2023/02/23 02:16:49;;;;;;;1999.90;999.90;;;10.30;99.90;;;;;;5013598;28;20437;-70
2023/02/23 02:19:39;;;;;;;1999.90;999.90;;;10.30;99.90;;;;;;5013644;28;20937;-70
2023/02/23 02:22:40;;;;;;;1999.90;999.90;;;10.00;99.90;;;;;;5013216;28;20411;-70
2023/02/23 02:25:21;;;;;;;1999.90;999.90;;;9.90;99.90;;;;;;5013232;28;20475;-70
2023/02/23 02:28:24;;;;;;;1999.90;999.90;;;9.80;99.90;;;;;;5013173;28;20399;-70
2023/02/23 02:31:10;;;;;;;1999.90;999.90;;;9.70;99.90;;;;;;5013171;28;20428;-69
2023/02/23 02:33:57;;;;;;;1999.90;999.90;;;9.60;99.90;;;;;;5013407;28;20405;-70
2023/02/23 02:37:03;;;;;;;1999.90;999.90;;;9.60;99.90;;;;;;5013123;28;20409;-70
2023/02/23 02:39:37;;;;;;;1999.90;999.90;;;9.50;99.90;;;;;;5012890;28;20521;-70
2023/02/23 02:42:11;;;;;;;1999.90;999.90;;;9.50;99.90;;;;;;5012938;28;20821;-70
2023/02/23 02:44:57;;;;;;;1999.90;999.90;;;9.40;99.90;;;;;;5013034;28;20849;-70
2023/02/23 02:47:51;;;;;;;1999.90;999.90;;;9.30;99.90;;;;;;5012412;28;20429;-70
2023/02/23 02:50:40;;;;;;;1999.90;999.90;;;9.40;99.90;;;;;;5012966;28;20391;-70
2023/02/23 02:53:25;;;;;;;1999.90;999.90;;;9.30;99.90;;;;;;5012951;28;20403;-70
2023/02/23 02:55:55;;;;;;;1999.90;999.90;;;9.30;99.90;;;;;;5012695;28;20402;-70
2023/02/23 02:58:24;;;;;;;1999.90;999.90;;;9.20;99.90;;;;;;5012767;28;20824;-70
2023/02/23 04:18:35;;;;;;;1999.90;999.90;;;9.20;99.90;;;;;;5014749;28;20427;-70
2023/02/23 04:21:01;;;;;;;1999.90;999.90;;;9.20;99.90;;;;;;5015426;28;20471;-70
2023/02/23 04:23:27;;;;;;;1999.90;999.90;;;9.10;99.90;;;;;;5015576;28;20408;-70
2023/02/23 04:25:54;;;;;;;1999.90;999.90;;;9.10;99.90;;;;;;5015441;28;20516;-70
2023/02/23 04:28:20;;;;;;;1999.90;999.90;;;9.20;99.90;;;;;;5015518;28;20475;-70
2023/02/23 04:30:47;;;;;;;1999.90;999.90;;;9.20;99.90;;;;;;5015435;28;20404;-70
2023/02/23 04:33:13;;;;;;;1999.90;999.90;;;9.20;99.90;;;;;;5015484;28;20907;-69
2023/02/23 04:35:39;;;;;;;1999.90;999.90;;;9.20;99.90;;;;;;5016088;28;20432;-70
2023/02/23 04:38:05;;;;;;;1999.90;999.90;;;9.20;99.90;;;;;;5035066;28;20450;-70
2023/02/23 04:40:31;;;;;;;1999.90;999.90;;;9.20;99.90;;;;;;5035146;28;20795;-70
2023/02/23 04:42:57;;;;;;;1999.90;999.90;;;9.20;99.90;;;;;;5034879;28;20171;-70
2023/02/23 04:45:24;;;;;;;1999.90;999.90;;;9.20;99.90;;;;;;5035095;28;20615;-69
2023/02/23 04:47:50;;;;;;;1999.90;999.90;;;9.20;99.90;;;;;;5034792;28;20415;-70
2023/02/23 04:50:16;;;;;;;1999.90;999.90;;;9.30;99.90;;;;;;5034916;28;20416;-70
2023/02/23 04:52:42;;;;;;;1999.90;999.90;;;9.30;99.90;;;;;;5034659;28;20424;-70
2023/02/23 04:55:19;;;;;;;1999.90;999.90;;;9.30;99.90;;;;;;5035110;28;20486;-70
2023/02/23 04:57:45;;;;;;;1999.90;999.90;;;9.40;99.90;;;;;;5034580;28;20512;-70
2023/02/23 05:00:11;;;;;;;1999.90;999.90;;;9.50;99.90;;;;;;5034810;28;20944;-70
2023/02/23 05:02:37;;;;;;;1999.90;999.90;;;9.40;99.90;;;;;;5034482;28;20210;-70
2023/02/23 05:05:02;;;;;;;1999.90;999.90;;;9.40;99.90;;;;;;5034517;28;20489;-70
2023/02/23 05:07:28;;;;;;;1999.90;999.90;;;9.40;99.90;;;;;;5034648;28;20183;-70
2023/02/23 05:09:53;;;;;;;1999.90;999.90;;;9.40;99.90;;;;;;5034401;28;20213;-70
2023/02/23 05:12:19;;;;;;;1999.90;999.90;;;9.40;99.90;;;;;;5034336;28;20229;-71
2023/02/23 05:14:45;;;;;;;1999.90;999.90;;;9.40;99.90;;;;;;5034453;28;20182;-70
2023/02/23 05:17:11;;;;;;;1999.90;999.90;;;9.50;99.90;;;;;;5034267;28;20172;-71
2023/02/23 05:19:36;;;;;;;1999.90;999.90;;;9.50;99.90;;;;;;5034242;28;20205;-70
2023/02/23 05:22:02;;;;;;;1999.90;999.90;;;9.50;99.90;;;;;;5034223;28;20265;-70
2023/02/23 05:24:28;;;;;;;1999.90;999.90;;;9.60;99.90;;;;;;5034197;28;20229;-70
2023/02/23 05:26:54;;;;;;;1999.90;999.90;;;9.60;99.90;;;;;;5034036;28;20429;-69
2023/02/23 05:29:19;;;;;;;1999.90;999.90;;;9.60;99.90;;;;;;5033938;28;20293;-71
2023/02/23 05:31:47;;;;;;;1999.90;999.90;;;9.60;99.90;;;;;;5033942;28;20612;-71
2023/02/23 05:34:15;;;;;;;1999.90;999.90;;;9.60;99.90;;;;;;5034082;28;20205;-70
2023/02/23 05:36:41;;;;;;;1999.90;999.90;;;9.60;99.90;;;;;;5033898;28;20416;-71
2023/02/23 05:39:07;;;;;;;1999.90;999.90;;;9.60;99.90;;;;;;5033804;28;20847;-70
2023/02/23 05:41:32;;;;;;;1999.90;999.90;;;9.60;99.90;;;;;;5033750;28;20415;-70
2023/02/23 05:43:58;;;;;;;1999.90;999.90;;;9.60;99.90;;;;;;5033881;28;20214;-70
2023/02/23 05:46:25;;;;;;;1999.90;999.90;;;9.60;99.90;;;;;;5033629;28;20201;-71
2023/02/23 05:48:55;;;;;;;1999.90;999.90;;;9.70;99.90;;;;;;5033708;28;20191;-70
2023/02/23 05:51:21;;;;;;;1999.90;999.90;;;9.70;99.90;;;;;;5033812;28;20894;-71
2023/02/23 05:53:47;;;;;;;1999.90;999.90;;;9.80;99.90;;;;;;5033675;28;20403;-69
2023/02/23 05:56:19;;;;;;;1999.90;999.90;;;9.70;99.90;;;;;;5033659;28;20179;-71
2023/02/23 05:58:48;;;;;;;1999.90;999.90;;;9.70;99.90;;;;;;5033463;28;20446;-71
2023/02/23 06:01:14;;;;;;;1999.90;999.90;;;9.70;99.90;;;;;;5033382;28;20410;-71
2023/02/23 06:03:40;;;;;;;1999.90;999.90;;;9.70;99.90;;;;;;5033503;28;20413;-71
2023/02/23 06:06:06;;;;;;;1999.90;999.90;;;9.70;99.90;;;;;;5033234;28;20813;-71
2023/02/23 06:08:31;;;;;;;1999.90;999.90;;;9.70;99.90;;;;;;5033332;28;20291;-71
2023/02/23 06:10:57;;;;;;;1999.90;999.90;;;9.70;99.90;;;;;;5033176;28;20411;-71
2023/02/23 06:13:23;;;;;;;1999.90;999.90;;;9.80;99.90;;;;;;5033242;28;20185;-69
2023/02/23 06:15:48;;;;;;;1999.90;999.90;;;9.90;99.90;;;;;;5033461;28;20171;-71
2023/02/23 06:18:15;;;;;;;1999.90;999.90;;;9.80;99.90;;;;;;5033166;28;20625;-71
2023/02/23 06:20:41;;;;;;;1999.90;999.90;;;9.80;99.90;;;;;;5033011;28;20187;-70
2023/02/23 06:23:07;;;;;;;1999.90;999.90;;;9.70;99.90;;;;;;5033132;28;20418;-71
2023/02/23 06:25:32;;;;;;;1999.90;999.90;;;9.80;99.90;;;;;;5033144;28;20210;-71
2023/02/23 06:27:58;;;;;;;1999.90;999.90;;;9.80;99.90;;;;;;5032820;28;20176;-70
2023/02/23 06:30:24;;;;;;;1999.90;999.90;;;9.80;99.90;;;;;;5033013;28;20260;-69
2023/02/23 06:32:49;;;;;;;1999.90;999.90;;;9.90;99.90;;;;;;5032831;28;20172;-68
2023/02/23 06:35:15;;;;;;;1999.90;999.90;;;9.90;99.90;;;;;;5032889;28;20923;-69
2023/02/23 06:37:42;;;;;;;1999.90;999.90;;;9.90;99.90;;;;;;5032754;28;20190;-69
2023/02/23 06:40:08;;;;;;;1999.90;999.90;;;9.90;99.90;;;;;;5032691;28;20199;-69
2023/02/23 06:42:34;;;;;;;1999.90;999.90;;;9.90;99.90;;;;;;5032573;28;20471;-69
2023/02/23 06:45:00;;;;;;;1999.90;999.90;;;9.90;99.90;;;;;;5032854;28;20453;-69
2023/02/23 06:47:26;;;;;;;1999.90;999.90;;;9.90;99.90;;;;;;5032590;28;20402;-69
2023/02/23 06:49:52;;;;;;;1999.90;999.90;;;9.80;99.90;;;;;;5032482;28;20563;-70
2023/02/23 06:52:17;;;;;;;1999.90;999.90;;;9.80;99.90;;;;;;5032428;28;20170;-69
2023/02/23 06:54:43;;;;;;;1999.90;999.90;;;9.80;99.90;;;;;;5032569;28;20181;-69
2023/02/23 06:57:09;;;;;;;1999.90;999.90;;;9.80;99.90;;;;;;5032406;28;20185;-69
2023/02/23 06:59:35;;;;;;;1999.90;999.90;;;9.80;99.90;;;;;;5032631;28;20935;-69
2023/02/23 07:02:04;;;;;;;1999.90;999.90;;;9.70;99.90;;;;;;5032225;28;20409;-69
2023/02/23 07:04:30;;;;;;;1999.90;999.90;;;9.70;99.90;;;;;;5032238;28;20415;-69
2023/02/23 07:06:56;;;;;;;1999.90;999.90;;;9.70;99.90;;;;;;5032306;28;20497;-69
2023/02/23 07:09:21;;;;;;;1999.90;999.90;;;9.70;99.90;;;;;;5032196;28;20906;-69
2023/02/23 07:11:47;;;;;;;1999.90;999.90;;;9.70;99.90;;;;;;5032033;28;20176;-69
2023/02/23 07:14:12;;;;;;;1999.90;999.90;;;9.60;99.90;;;;;;5032278;28;20188;-69
2023/02/23 07:16:39;;;;;;;1999.90;999.90;;;9.70;99.90;;;;;;5032146;28;20536;-69
2023/02/23 07:19:05;;;;;;;1999.90;999.90;;;9.70;99.90;;;;;;5032142;28;20427;-69
2023/02/23 07:21:32;;;;;;;1999.90;999.90;;;9.60;99.90;;;;;;5032056;28;20412;-69
2023/02/23 07:23:59;;;;;;;1999.90;999.90;;;9.70;99.90;;;;;;5032156;28;20405;-68
2023/02/23 07:26:25;;;;;;;1999.90;999.90;;;9.70;99.90;;;;;;5031885;28;20454;-70
2023/02/23 07:28:51;;;;;;;1999.90;999.90;;;9.80;99.90;;;;;;5032113;28;20515;-70
2023/02/23 07:31:16;;;;;;;1999.90;999.90;;;9.80;99.90;;;;;;5031841;28;20504;-69
2023/02/23 07:33:42;;;;;;;1999.90;999.90;;;9.80;99.90;;;;;;5031996;28;20175;-68
2023/02/23 07:36:08;;;;;;;1999.90;999.90;;;9.80;99.90;;;;;;5031927;28;20210;-69
2023/02/23 07:38:34;;;;;;;1999.90;999.90;;;9.70;99.90;;;;;;5031843;28;20218;-69
2023/02/23 07:41:00;;;;;;;1999.90;999.90;;;9.80;99.90;;;;;;5031622;28;20780;-69
2023/02/23 07:43:25;;;;;;;1999.90;999.90;;;9.70;99.90;;;;;;5032135;28;20202;-69
2023/02/23 07:45:51;;;;;;;1999.90;999.90;;;9.70;99.90;;;;;;5031746;28;20247;-68
2023/02/23 07:48:20;;;;;;;1999.90;999.90;;;9.60;99.90;;;;;;5031784;28;20749;-68
2023/02/23 07:50:46;;;;;;;1999.90;999.90;;;9.60;99.90;;;;;;5031778;28;20269;-69
2023/02/23 07:53:13;;;;;;;1999.90;999.90;;;9.50;99.90;;;;;;5034235;28;20452;-69
2023/02/23 07:55:39;;;;;;;1999.90;999.90;;;9.50;99.90;;;;;;5035906;28;20407;-69
2023/02/23 07:58:04;;;;;;;1999.90;999.90;;;9.50;99.90;;;;;;5035779;28;20428;-69
2023/02/23 08:00:32;;;;;;;1999.90;999.90;;;9.50;99.90;;;;;;5035821;28;20182;-69
2023/02/23 08:02:58;;;;;;;1999.90;999.90;;;9.50;99.90;;;;;;5035526;28;20409;-68
2023/02/23 08:05:24;;;;;;;1999.90;999.90;;;9.50;99.90;;;;;;5035655;28;21156;-69
2023/02/23 08:07:50;;;;;;;1999.90;999.90;;;9.50;99.90;;;;;;5035540;28;20408;-69
2023/02/23 08:10:16;;;;;;;1999.90;999.90;;;9.40;99.90;;;;;;5035596;28;20406;-69
2023/02/23 08:12:42;;;;;;;1999.90;999.90;;;9.30;99.90;;;;;;5035501;28;20540;-68
2023/02/23 08:15:08;;;;;;;1999.90;999.90;;;9.20;99.90;;;;;;5035794;28;20414;-69
2023/02/23 08:17:35;;;;;;;1999.90;999.90;;;9.20;99.90;;;;;;5035385;28;20415;-68
2023/02/23 08:20:01;;;;;;;1999.90;999.90;;;9.20;99.90;;;;;;5035302;28;20514;-69
2023/02/23 08:22:26;;;;;;;1999.90;999.90;;;9.20;99.90;;;;;;5035161;28;20485;-69
2023/02/23 08:24:52;;;;;;;1999.90;999.90;;;9.20;99.90;;;;;;5035385;28;20198;-69
2023/02/23 08:27:18;;;;;;;1999.90;999.90;;;9.30;99.90;;;;;;5035236;28;20173;-69
2023/02/23 08:29:44;;;;;;;1999.90;999.90;;;9.30;99.90;;;;;;5035444;28;20217;-69
2023/02/23 08:32:10;;;;;;;1999.90;999.90;;;9.40;99.90;;;;;;5034981;28;20855;-69
2023/02/23 08:34:40;;;;;;;1999.90;999.90;;;9.50;99.90;;;;;;5035125;28;20605;-69
2023/02/23 08:37:06;;;;;;;1999.90;999.90;;;9.60;99.90;;;;;;5034978;28;20255;-70
2023/02/23 08:39:32;;;;;;;1999.90;999.90;;;9.60;99.90;;;;;;5034921;28;20837;-70
2023/02/23 08:41:58;;;;;;;1999.90;999.90;;;9.50;99.90;;;;;;5034945;28;20884;-71
2023/02/23 08:44:23;;;;;;;1999.90;999.90;;;9.50;99.90;;;;;;5034993;28;20500;-71
2023/02/23 08:46:49;;;;;;;1999.90;999.90;;;9.50;99.90;;;;;;5034802;28;20640;-70
2023/02/23 08:49:15;;;;;;;1999.90;999.90;;;9.50;99.90;;;;;;5034856;28;20335;-70
2023/02/23 08:51:41;;;;;;;1999.90;999.90;;;9.50;99.90;;;;;;5034829;28;20176;-71
2023/02/23 08:54:13;;;;;;;1999.90;999.90;;;9.50;99.90;;;;;;5035054;28;20548;-70
2023/02/23 08:56:39;;;;;;;1999.90;999.90;;;9.60;99.90;;;;;;5034923;28;20496;-71
2023/02/23 08:59:04;;;;;;;1999.90;999.90;;;9.50;99.90;;;;;;5034672;28;20492;-70
2023/02/23 09:01:30;;;;;;;1999.90;999.90;;;9.50;99.90;;;;;;5034573;28;20412;-70
2023/02/23 09:03:56;;;;;;;1999.90;999.90;;;9.60;99.90;;;;;;5034097;28;20253;-71
2023/02/23 09:06:24;;;;;;;1999.90;999.90;;;9.60;99.90;;;;;;5034428;28;20194;-71
2023/02/23 09:08:50;;;;;;;1999.90;999.90;;;9.60;99.90;;;;;;5034526;28;20185;-70
2023/02/23 09:11:16;;;;;;;1999.90;999.90;;;9.50;99.90;;;;;;5034251;28;20396;-70
2023/02/23 09:13:42;;;;;;;1999.90;999.90;;;9.60;99.90;;;;;;5034546;28;20408;-70
2023/02/23 09:16:08;;;;;;;1999.90;999.90;;;9.60;99.90;;;;;;5034317;28;20417;-70
2023/02/23 09:18:34;;;;;;;1999.90;999.90;;;9.60;99.90;;;;;;5034323;28;20426;-69
2023/02/23 09:21:05;;;;;;;1999.90;999.90;;;9.50;99.90;;;;;;5034201;28;20171;-70
2023/02/23 09:23:31;;;;;;;1999.90;999.90;;;9.50;99.90;;;;;;5034525;28;20413;-70
2023/02/23 09:26:01;;;;;;;1999.90;999.90;;;9.50;99.90;;;;;;5034067;28;20822;-70
2023/02/23 09:28:29;;;;;;;1999.90;999.90;;;9.40;99.90;;;;;;5034132;28;20479;-70
2023/02/23 09:30:55;;;;;;;1999.90;999.90;;;9.20;99.90;;;;;;5033978;28;20409;-70
2023/02/23 09:33:20;;;;;;;1999.90;999.90;;;9.20;99.90;;;;;;5034025;28;20773;-70
2023/02/23 09:35:46;;;;;;;1999.90;999.90;;;9.20;99.90;;;;;;5034049;28;20171;-70
2023/02/23 09:38:12;;;;;;;1999.90;999.90;;;9.20;99.90;;;;;;5033730;28;20719;-69
2023/02/23 09:40:46;;;;;;;1999.90;999.90;;;9.30;99.90;;;;;;5033809;28;20604;-70
2023/02/23 09:43:21;;;;;;;1999.90;999.90;;;9.40;99.90;;;;;;5034016;28;20549;-69
2023/02/23 09:45:54;;;;;;;1999.90;999.90;;;9.30;99.90;;;;;;5033717;28;20447;-70
2023/02/23 09:48:23;;;;;;;1999.90;999.90;;;9.30;99.90;;;;;;5030885;28;20428;-70
2023/02/23 09:50:54;;;;;;;1999.90;999.90;;;9.30;99.90;;;;;;5033189;28;20409;-70
2023/02/23 09:53:26;;;;;;;1999.90;999.90;;;9.10;99.90;;;;;;5033295;28;20498;-70
2023/02/23 09:55:53;;;;;;;1999.90;999.90;;;9.00;99.90;;;;;;5033159;28;20398;-70
2023/02/23 09:58:23;;;;;;;1999.90;999.90;;;9.00;99.90;;;;;;5033359;28;20508;-70
2023/02/23 10:01:04;;;;;;;1999.90;999.90;;;9.10;99.90;;;;;;5033213;28;20417;-70
2023/02/23 10:03:33;;;;;;;1999.90;999.90;;;9.20;99.90;;;;;;5032928;28;20407;-70
2023/02/23 10:06:04;;;;;;;1999.90;999.90;;;9.20;99.90;;;;;;5033003;28;20536;-70
2023/02/23 10:08:41;;;;;;;1999.90;999.90;;;9.20;99.90;;;;;;5033093;28;20463;-70
2023/02/23 10:11:22;;;;;;;1999.90;999.90;;;9.20;99.90;;;;;;5032343;28;20420;-70
2023/02/23 10:14:08;;;;;;;1999.90;999.90;;;9.20;99.90;;;;;;5033140;28;20890;-72
2023/02/23 10:17:01;;;;;;;1999.90;999.90;;;9.20;99.90;;;;;;5012247;28;20412;-69
2023/02/23 10:19:54;;;;;;;1999.90;999.90;;;9.20;99.90;;;;;;5015800;28;20505;-70
2023/02/23 10:22:20;;;;;;;1999.90;999.90;;;9.20;99.90;;;;;;5020158;28;20902;-71
2023/02/23 10:25:02;;;;;;;1999.90;999.90;;;9.30;99.90;;;;;;5048003;28;20479;-72
2023/02/23 10:27:48;;;;;;;1999.90;999.90;;;9.20;99.90;;;;;;5044960;28;20778;-71
2023/02/23 10:30:22;;;;;;;1999.90;999.90;;;9.20;99.90;;;;;;5034748;28;20471;-72
2023/02/23 10:33:15;;;;;;;1999.90;999.90;;;9.30;99.90;;;;;;5032339;28;20757;-71
2023/02/23 10:35:41;;;;;;;1999.90;999.90;;;9.30;99.90;;;;;;5032278;28;20404;-68
2023/02/23 10:38:17;;;;;;;1999.90;999.90;;;9.40;99.90;;;;;;5031313;28;20509;-72
2023/02/23 10:40:46;;;;;;;1999.90;999.90;;;9.50;99.90;;;;;;5030866;28;20420;-67
2023/02/23 10:43:13;;;;;;;1999.90;999.90;;;9.50;99.90;;;;;;5031489;28;20490;-68
2023/02/23 10:45:47;;;;;;;1999.90;999.90;;;9.50;99.90;;;;;;5031470;28;20490;-68
2023/02/23 10:48:25;;;;;;;1999.90;999.90;;;9.50;99.90;;;;;;5016440;28;20429;-68
2023/02/23 10:51:01;;;;;;;1999.90;999.90;;;9.50;99.90;;;;;;5031421;28;20421;-67
2023/02/23 10:53:34;;;;;;;1999.90;999.90;;;9.60;99.90;;;;;;5026870;28;20409;-68
2023/02/23 10:56:10;;;;;;;1999.90;999.90;;;9.70;99.90;;;;;;5030625;28;20413;-71
2023/02/23 10:58:50;;;;;;;1999.90;999.90;;;9.50;99.90;;;;;;5031784;28;21014;-72
2023/02/23 11:01:45;;;;;;;1999.90;999.90;;;9.40;99.90;;;;;;5017463;28;20402;-69
2023/02/23 11:04:30;;;;;;;1999.90;999.90;;;9.30;99.90;;;;;;5031788;28;20414;-72
2023/02/23 11:07:30;;;;;;;1999.90;999.90;;;9.20;99.90;;;;;;5031324;28;20401;-71
2023/02/23 11:10:17;;;;;;;1999.90;999.90;;;9.10;99.90;;;;;;5019901;28;20430;-71
2023/02/23 11:12:42;;;;;;;1999.90;999.90;;;9.00;99.90;;;;;;5031184;28;20407;-71
2023/02/23 11:15:23;;;;;;;1999.90;999.90;;;8.90;99.90;;;;;;5031288;28;20763;-71
2023/02/23 11:17:56;;;;;;;1999.90;999.90;;;8.70;99.90;;;;;;5030724;28;20203;-71
2023/02/23 11:20:38;;;;;;;1999.90;999.90;;;8.80;99.90;;;;;;5031385;28;20396;-71
2023/02/23 11:23:20;;;;;;;1999.90;999.90;;;8.80;99.90;;;;;;5031709;28;20381;-70
2023/02/23 11:25:47;;;;;;;1999.90;999.90;;;8.80;99.90;;;;;;5030520;28;21047;-69
2023/02/23 11:28:24;;;;;;;1999.90;999.90;;;9.00;99.90;;;;;;5025211;28;20444;-69
2023/02/23 11:30:50;;;;;;;1999.90;999.90;;;8.80;99.90;;;;;;5030961;28;20388;-70
2023/02/23 11:33:20;;;;;;;1999.90;999.90;;;8.90;99.90;;;;;;5030707;28;20416;-70
2023/02/23 11:35:45;;;;;;;1999.90;999.90;;;8.80;99.90;;;;;;5031337;28;20413;-68
2023/02/23 11:38:27;;;;;;;1999.90;999.90;;;8.70;99.90;;;;;;5030955;28;20451;-68
2023/02/23 11:41:03;;;;;;;1999.90;999.90;;;8.70;99.90;;;;;;5030621;28;20245;-67
2023/02/23 11:43:29;;;;;;;1999.90;999.90;;;8.80;99.90;;;;;;5031209;28;21073;-70
2023/02/23 11:45:57;;;;;;;1999.90;999.90;;;8.70;99.90;;;;;;5030964;28;20452;-71
2023/02/23 11:48:30;;;;;;;1999.90;999.90;;;8.80;99.90;;;;;;5030447;28;20434;-70
2023/02/23 11:50:57;;;;;;;1999.90;999.90;;;8.70;99.90;;;;;;5030449;28;20438;-70
2023/02/23 11:53:31;;;;;;;1999.90;999.90;;;8.60;99.90;;;;;;5030957;28;20419;-72
2023/02/23 11:56:06;;;;;;;1999.90;999.90;;;8.60;99.90;;;;;;5031061;28;20441;-70
2023/02/23 11:58:49;;;;;;;1999.90;999.90;;;8.50;99.90;;;;;;5030765;28;20519;-70
2023/02/23 12:01:22;;;;;;;1999.90;999.90;;;8.60;99.90;;;;;;5030181;28;20415;-70
2023/02/23 12:03:57;;;;;;;1999.90;999.90;;;8.50;99.90;;;;;;5031174;28;20918;-71
2023/02/23 12:06:38;;;;;;;1999.90;999.90;;;8.40;99.90;;;;;;5030732;28;20454;-70
2023/02/23 12:09:30;;;;;;;1999.90;999.90;;;8.40;99.90;;;;;;5030330;28;20419;-70
2023/02/23 12:12:04;;;;;;;1999.90;999.90;;;8.50;99.90;;;;;;5030597;28;20405;-70
2023/02/23 12:14:39;;;;;;;1999.90;999.90;;;8.50;99.90;;;;;;5030743;28;20812;-71
2023/02/23 12:17:22;;;;;;;1999.90;999.90;;;8.60;99.90;;;;;;5030328;28;20386;-70
2023/02/23 12:19:59;;;;;;;1999.90;999.90;;;8.60;99.90;;;;;;5030582;28;20425;-70
2023/02/23 12:22:41;;;;;;;1999.90;999.90;;;8.70;99.90;;;;;;5030533;28;20903;-71
2023/02/23 12:25:39;;;;;;;1999.90;999.90;;;8.70;99.90;;;;;;5030285;28;20458;-71
2023/02/23 12:28:26;;;;;;;1999.90;999.90;;;8.80;99.90;;;;;;5030498;28;20452;-70
2023/02/23 12:30:55;;;;;;;1999.90;999.90;;;8.90;99.90;;;;;;5030269;28;20386;-70
2023/02/23 12:33:36;;;;;;;1999.90;999.90;;;9.00;99.90;;;;;;5030537;28;20428;-71
2023/02/23 12:36:30;;;;;;;1999.90;999.90;;;9.10;99.90;;;;;;5026917;28;20560;-70
2023/02/23 12:39:17;;;;;;;1999.90;999.90;;;9.00;99.90;;;;;;5032197;28;20503;-71
2023/02/23 12:41:43;;;;;;;1999.90;999.90;;;9.00;99.90;;;;;;5033994;28;20396;-71
2023/02/23 12:44:30;;;;;;;1999.90;999.90;;;9.00;99.90;;;;;;5034247;28;20423;-71
2023/02/23 12:47:02;;;;;;;1999.90;999.90;;;9.00;99.90;;;;;;5033393;28;20179;-70
2023/02/23 12:50:06;;;;;;;1999.90;999.90;;;8.90;99.90;;;;;;5034002;28;20426;-70
2023/02/23 12:52:38;;;;;;;1999.90;999.90;;;8.90;99.90;;;;;;5029119;28;21005;-70
2023/02/23 12:55:10;;;;;;;1999.90;999.90;;;8.80;99.90;;;;;;5034162;28;20449;-70
2023/02/23 12:57:43;;;;;;;1999.90;999.90;;;8.70;99.90;;;;;;5033587;28;20395;-70
2023/02/23 13:00:28;;;;;;;1999.90;999.90;;;8.70;99.90;;;;;;5017478;28;20398;-71
2023/02/23 13:03:23;;;;;;;1999.90;999.90;;;8.70;99.90;;;;;;5033343;28;20404;-71
2023/02/23 13:06:06;;;;;;;1999.90;999.90;;;8.80;99.90;;;;;;5006267;28;20830;-71
2023/02/23 13:09:00;;;;;;;1999.90;999.90;;;8.80;99.90;;;;;;5033176;28;20852;-70
2023/02/23 13:12:00;;;;;;;1999.90;999.90;;;8.90;99.90;;;;;;5033592;28;20416;-71
2023/02/23 13:14:48;;;;;;;1999.90;999.90;;;9.00;99.90;;;;;;5033716;28;20405;-71
2023/02/23 13:17:53;;;;;;;1999.90;999.90;;;9.10;99.90;;;;;;5033225;28;20402;-67
2023/02/23 13:20:34;;;;;;;1999.90;999.90;;;9.30;99.90;;;;;;5033449;28;20462;-68
2023/02/23 13:23:08;;;;;;;1999.90;999.90;;;9.40;99.90;;;;;;5032751;28;20391;-68
2023/02/23 13:25:45;;;;;;;1999.90;999.90;;;9.50;99.90;;;;;;5033463;28;20445;-68
2023/02/23 13:28:27;;;;;;;1999.90;999.90;;;9.50;99.90;;;;;;5033335;28;20416;-68
2023/02/23 13:30:53;;;;;;;1999.90;999.90;;;9.60;99.90;;;;;;5032595;28;20440;-68
2023/02/23 13:33:33;;;;;;;1999.90;999.90;;;9.60;99.90;;;;;;5033427;28;20906;-68
2023/02/23 13:36:03;;;;;;;1999.90;999.90;;;9.70;99.90;;;;;;5033124;28;20492;-68
2023/02/23 13:39:09;;;;;;;1999.90;999.90;;;9.70;99.90;;;;;;5032634;28;20453;-70
2023/02/23 13:41:42;;;;;;;1999.90;999.90;;;9.80;99.90;;;;;;5007279;28;20464;-70
2023/02/23 13:44:41;;;;;;;1999.90;999.90;;;9.80;99.90;;;;;;5018265;28;20428;-70
2023/02/23 13:47:36;;;;;;;1999.90;999.90;;;10.00;99.90;;;;;;5020251;28;20461;-70
2023/02/23 13:50:24;;;;;;;1999.90;999.90;;;10.40;99.90;;;;;;5031461;28;20532;-70